createdAt,value
2018-12-13T00:01:34.010Z,2.66
2018-12-13T00:04:37.326Z,2.73
2018-12-13T00:07:40.554Z,2.66
2018-12-13T00:10:43.815Z,2.35
2018-12-13T00:13:47.071Z,2.17
2018-12-13T00:16:50.410Z,1.97
2018-12-13T00:19:53.710Z,1.69
2018-12-13T00:22:56.919Z,1.42
2018-12-13T00:26:00.186Z,1.18
2018-12-13T00:29:03.392Z,1.10
2018-12-13T00:32:06.692Z,1.00
2018-12-13T00:35:09.957Z,1.03
2018-12-13T00:38:13.291Z,1.19
2018-12-13T00:41:16.527Z,1.08
2018-12-13T00:44:19.776Z,1.05
2018-12-13T00:47:22.996Z,1.08
2018-12-13T00:50:26.273Z,1.00
2018-12-13T00:53:29.500Z,0.95
2018-12-13T00:56:32.821Z,0.95
2018-12-13T00:59:36.060Z,1.02
2018-12-13T01:02:39.359Z,1.12
2018-12-13T01:05:42.555Z,1.22
2018-12-13T01:08:45.848Z,1.41
2018-12-13T01:11:49.260Z,1.42
2018-12-13T01:14:52.452Z,1.19
2018-12-13T01:17:55.668Z,1.00
2018-12-13T01:20:58.897Z,1.06
2018-12-13T01:24:02.134Z,0.87
2018-12-13T01:27:05.395Z,0.91
2018-12-13T01:30:08.681Z,0.85
2018-12-13T01:33:11.889Z,0.91
2018-12-13T01:36:15.317Z,1.08
2018-12-13T01:39:18.512Z,1.05
2018-12-13T01:42:21.810Z,1.14
2018-12-13T01:45:25.005Z,1.18
2018-12-13T01:48:28.301Z,1.16
2018-12-13T01:51:31.527Z,1.21
2018-12-13T01:54:34.792Z,1.31
2018-12-13T01:57:38.028Z,1.23
2018-12-13T02:00:41.283Z,1.22
2018-12-13T02:03:44.484Z,1.17
2018-12-13T02:06:47.879Z,1.27
2018-12-13T02:09:51.278Z,1.35
2018-12-13T02:12:54.481Z,1.40
2018-12-13T02:15:57.770Z,1.25
2018-12-13T02:19:00.974Z,1.12
2018-12-13T02:22:04.365Z,1.08
2018-12-13T02:25:07.622Z,0.98
2018-12-13T02:28:10.960Z,1.03
2018-12-13T02:31:14.250Z,0.88
2018-12-13T02:34:17.469Z,0.80
2018-12-13T02:37:20.730Z,0.75
2018-12-13T02:40:23.974Z,0.80
2018-12-13T02:43:27.237Z,0.79
2018-12-13T02:46:30.442Z,0.76
2018-12-13T02:49:33.673Z,0.81
2018-12-13T02:52:37.009Z,0.76
2018-12-13T02:55:40.325Z,0.82
2018-12-13T02:58:43.622Z,0.81
2018-12-13T03:01:46.921Z,0.96
2018-12-13T03:04:50.121Z,0.81
2018-12-13T03:07:53.374Z,0.93
2018-12-13T03:10:56.689Z,0.91
2018-12-13T03:14:00.057Z,0.93
2018-12-13T03:17:03.608Z,1.01
2018-12-13T03:20:06.912Z,1.17
2018-12-13T03:23:10.309Z,0.91
2018-12-13T03:26:13.553Z,1.09
2018-12-13T03:29:16.798Z,1.21
2018-12-13T03:32:20.009Z,1.31
2018-12-13T03:35:23.362Z,1.23
2018-12-13T03:38:26.605Z,1.15
2018-12-13T03:41:29.965Z,1.22
2018-12-13T03:44:33.192Z,1.23
2018-12-13T03:47:36.439Z,1.21
2018-12-13T03:50:39.658Z,1.30
2018-12-13T03:53:42.950Z,1.28
2018-12-13T03:56:46.180Z,1.31
2018-12-13T03:59:49.463Z,1.37
2018-12-13T04:02:52.863Z,1.51
2018-12-13T04:05:56.772Z,1.59
2018-12-13T04:08:59.998Z,1.66
2018-12-13T04:12:03.264Z,1.75
2018-12-13T04:15:06.559Z,1.71
2018-12-13T04:18:10.024Z,1.76
2018-12-13T04:21:13.361Z,1.76
2018-12-13T04:24:16.590Z,1.74
2018-12-13T04:27:19.853Z,1.73
2018-12-13T04:30:23.067Z,1.81
2018-12-13T04:33:26.344Z,1.91
2018-12-13T04:36:29.548Z,2.03
2018-12-13T04:39:32.780Z,1.98
2018-12-13T04:42:36.004Z,2.01
2018-12-13T04:45:39.255Z,2.04
2018-12-13T04:48:42.568Z,2.01
2018-12-13T04:51:45.822Z,1.83
2018-12-13T04:54:49.027Z,1.44
2018-12-13T04:57:52.358Z,1.13
2018-12-13T05:00:55.585Z,1.20
2018-12-13T05:03:58.849Z,1.17
2018-12-13T05:07:02.066Z,0.99
2018-12-13T05:10:05.912Z,1.22
2018-12-13T05:13:09.149Z,1.23
2018-12-13T05:16:12.378Z,1.32
2018-12-13T05:19:15.604Z,1.41
2018-12-13T05:22:18.895Z,1.53
2018-12-13T05:25:22.096Z,1.55
2018-12-13T05:28:25.375Z,1.50
2018-12-13T05:31:28.584Z,1.62
2018-12-13T05:34:31.877Z,1.73
2018-12-13T05:37:35.089Z,1.80
2018-12-13T05:40:38.373Z,1.81
2018-12-13T05:43:41.580Z,1.88
2018-12-13T05:46:44.811Z,1.87
2018-12-13T05:49:48.193Z,1.92
2018-12-13T05:52:51.456Z,1.98
2018-12-13T05:55:54.665Z,1.88
2018-12-13T05:58:57.892Z,1.92
2018-12-13T06:02:01.140Z,1.89
2018-12-13T06:05:05.849Z,2.03
2018-12-13T06:08:09.075Z,1.78
2018-12-13T06:11:12.365Z,1.43
2018-12-13T06:14:15.606Z,1.08
2018-12-13T06:17:19.636Z,0.77
2018-12-13T06:20:22.983Z,0.97
2018-12-13T06:23:26.188Z,1.01
2018-12-13T06:26:29.468Z,0.87
2018-12-13T06:29:32.709Z,0.90
2018-12-13T06:32:36.021Z,0.77
2018-12-13T06:35:39.233Z,0.76
2018-12-13T06:38:42.552Z,0.67
2018-12-13T06:41:45.753Z,0.72
2018-12-13T06:44:49.044Z,0.80
2018-12-13T06:47:52.248Z,0.97
2018-12-13T06:50:55.597Z,0.95
2018-12-13T06:53:58.935Z,0.74
2018-12-13T06:57:02.181Z,0.90
2018-12-13T07:00:08.323Z,0.91
2018-12-13T07:03:11.565Z,0.70
2018-12-13T07:06:14.896Z,0.70
2018-12-13T07:09:18.130Z,0.98
2018-12-13T07:12:21.369Z,1.20
2018-12-13T07:15:24.621Z,1.21
2018-12-13T07:18:27.956Z,1.31
2018-12-13T07:21:31.208Z,1.35
2018-12-13T07:24:34.466Z,1.26
2018-12-13T07:27:37.763Z,1.35
2018-12-13T07:30:41.059Z,1.45
2018-12-13T07:33:44.293Z,1.59
2018-12-13T07:36:47.565Z,1.65
2018-12-13T07:39:50.853Z,1.69
2018-12-13T07:42:54.120Z,1.82
2018-12-13T07:45:57.328Z,1.86
2018-12-13T07:49:00.638Z,1.76
2018-12-13T07:52:03.872Z,1.87
2018-12-13T07:55:07.232Z,1.92
2018-12-13T07:58:10.445Z,2.09
2018-12-13T08:01:13.724Z,2.10
2018-12-13T08:04:16.954Z,2.02
2018-12-13T08:07:20.220Z,1.94
2018-12-13T08:10:23.615Z,1.94
2018-12-13T08:13:26.915Z,1.84
2018-12-13T08:16:30.209Z,1.89
2018-12-13T08:19:33.432Z,1.65
2018-12-13T08:22:36.702Z,1.81
2018-12-13T08:25:39.922Z,1.89
2018-12-13T08:28:43.194Z,2.03
2018-12-13T08:31:46.491Z,1.80
2018-12-13T08:34:49.789Z,1.92
2018-12-13T08:37:52.992Z,2.07
2018-12-13T08:40:56.280Z,2.07
2018-12-13T08:43:59.486Z,2.21
2018-12-13T08:47:02.740Z,1.98
2018-12-13T08:50:06.137Z,2.04
2018-12-13T08:53:09.399Z,2.13
2018-12-13T08:56:12.740Z,2.25
2018-12-13T08:59:15.973Z,2.33
2018-12-13T09:02:19.223Z,1.71
2018-12-13T09:05:22.761Z,1.88
2018-12-13T09:08:26.010Z,2.05
2018-12-13T09:11:29.457Z,2.23
2018-12-13T09:14:32.856Z,2.22
2018-12-13T09:17:36.069Z,2.22
2018-12-13T09:20:39.299Z,2.21
2018-12-13T09:23:43.053Z,2.15
2018-12-13T09:26:46.340Z,2.31
2018-12-13T09:29:49.649Z,2.26
2018-12-13T09:32:52.946Z,2.41
2018-12-13T09:35:56.244Z,2.09
2018-12-13T09:38:59.449Z,2.01
2018-12-13T09:42:02.736Z,1.70
2018-12-13T09:45:07.536Z,1.84
2018-12-13T09:51:22.889Z,1.62
2018-12-13T09:54:26.146Z,1.80
2018-12-13T09:57:34.059Z,1.83
2018-12-13T10:00:37.308Z,1.36
2018-12-13T10:03:40.531Z,1.14
2018-12-13T10:06:43.836Z,1.31
2018-12-13T10:09:47.164Z,1.12
2018-12-13T10:12:50.428Z,1.26
2018-12-13T10:15:53.680Z,1.42
2018-12-13T10:18:56.912Z,1.65
2018-12-13T10:22:00.147Z,1.55
2018-12-13T10:25:03.437Z,1.34
2018-12-13T10:28:06.661Z,1.58
2018-12-13T10:31:09.917Z,1.76
2018-12-13T10:34:13.137Z,2.05
2018-12-13T10:37:16.378Z,2.10
2018-12-13T10:40:19.819Z,1.93
2018-12-13T10:43:23.077Z,2.18
2018-12-13T10:46:26.310Z,2.36
2018-12-13T10:49:29.568Z,2.47
2018-12-13T10:52:32.882Z,2.59
2018-12-13T10:55:36.100Z,2.36
2018-12-13T10:58:39.362Z,2.30
2018-12-13T11:05:03.584Z,2.23
2018-12-13T11:08:06.876Z,2.44
2018-12-13T11:11:10.100Z,2.52
2018-12-13T11:14:13.326Z,2.15
2018-12-13T11:17:16.615Z,1.93
2018-12-13T11:20:19.872Z,1.73
2018-12-13T11:23:23.101Z,1.96
2018-12-13T11:26:26.385Z,2.09
2018-12-13T11:33:24.753Z,1.54
2018-12-13T11:36:28.040Z,1.68
2018-12-13T11:39:31.260Z,1.93
2018-12-13T11:42:34.493Z,1.96
2018-12-13T11:45:37.761Z,1.63
2018-12-13T11:48:41.072Z,1.63
2018-12-13T11:51:44.463Z,1.55
2018-12-13T11:54:47.957Z,1.50
2018-12-13T11:57:51.262Z,1.50
2018-12-13T12:00:54.468Z,1.33
2018-12-13T12:03:57.754Z,1.14
2018-12-13T12:07:00.988Z,1.32
2018-12-13T12:10:04.660Z,1.26
2018-12-13T12:13:07.925Z,1.23
2018-12-13T12:16:11.128Z,1.11
2018-12-13T12:19:14.446Z,0.97
2018-12-13T12:22:17.796Z,1.19
2018-12-13T12:25:21.041Z,1.17
2018-12-13T12:28:24.337Z,1.15
2018-12-13T12:31:27.722Z,1.03
2018-12-13T12:34:30.949Z,0.75
2018-12-13T12:37:34.213Z,0.85
2018-12-13T12:40:37.435Z,1.06
2018-12-13T12:43:40.663Z,0.87
2018-12-13T12:46:43.918Z,0.91
2018-12-13T12:49:47.261Z,1.14
2018-12-13T12:52:50.493Z,1.37
2018-12-13T12:55:53.813Z,1.52
2018-12-13T12:58:57.029Z,1.59
2018-12-13T13:02:00.392Z,1.49
2018-12-13T13:05:04.660Z,1.13
2018-12-13T13:08:07.921Z,1.29
2018-12-13T13:11:11.144Z,1.15
2018-12-13T13:14:14.376Z,1.24
2018-12-13T13:17:17.608Z,1.05
2018-12-13T13:20:20.989Z,1.37
2018-12-13T13:23:24.197Z,1.47
2018-12-13T13:26:27.497Z,1.38
2018-12-13T13:29:30.713Z,1.23
2018-12-13T13:32:33.957Z,1.40
2018-12-13T13:35:37.275Z,1.40
2018-12-13T13:38:40.582Z,1.31
2018-12-13T13:41:43.828Z,1.14
2018-12-13T13:44:47.469Z,1.41
2018-12-13T13:47:50.793Z,1.51
2018-12-13T13:50:54.051Z,1.54
2018-12-13T13:53:57.303Z,1.39
2018-12-13T13:57:00.568Z,1.34
2018-12-13T14:00:06.829Z,1.54
2018-12-13T14:03:10.054Z,1.64
2018-12-13T14:06:13.279Z,1.47
2018-12-13T14:09:16.522Z,1.13
2018-12-13T14:12:19.733Z,1.00
2018-12-13T14:15:23.004Z,0.99
2018-12-13T14:18:26.237Z,0.81
2018-12-13T14:21:29.483Z,0.75
2018-12-13T14:24:32.794Z,0.82
2018-12-13T14:27:36.077Z,1.07
2018-12-13T14:30:39.320Z,1.20
2018-12-13T14:33:42.586Z,1.00
2018-12-13T14:36:45.893Z,1.03
2018-12-13T14:39:49.130Z,1.08
2018-12-13T14:42:52.448Z,1.12
2018-12-13T14:45:55.668Z,1.10
2018-12-13T14:48:58.979Z,0.95
2018-12-13T14:52:02.193Z,1.11
2018-12-13T14:55:05.500Z,0.93
2018-12-13T14:58:08.752Z,0.99
2018-12-13T15:01:12.021Z,0.86
2018-12-13T15:04:15.254Z,0.88
2018-12-13T15:07:18.548Z,0.91
2018-12-13T15:10:21.856Z,1.00
2018-12-13T15:13:25.178Z,0.94
2018-12-13T15:16:28.415Z,1.06
2018-12-13T15:19:31.682Z,1.07
2018-12-13T15:22:35.042Z,0.98
2018-12-13T15:25:38.272Z,1.15
2018-12-13T15:28:41.532Z,1.19
2018-12-13T15:31:44.741Z,1.07
2018-12-13T15:34:48.023Z,1.01
2018-12-13T15:37:51.273Z,1.02
2018-12-13T15:40:54.516Z,1.08
2018-12-13T15:43:57.911Z,1.06
2018-12-13T15:47:01.162Z,0.98
2018-12-13T15:50:06.486Z,0.99
2018-12-13T15:53:09.750Z,1.05
2018-12-13T15:56:13.004Z,1.15
2018-12-13T15:59:16.233Z,1.28
2018-12-13T16:02:19.542Z,1.31
2018-12-13T16:05:22.768Z,1.07
2018-12-13T16:08:25.997Z,1.02
2018-12-13T16:11:29.217Z,1.10
2018-12-13T16:14:32.444Z,1.17
2018-12-13T16:17:35.668Z,1.37
2018-12-13T16:20:38.897Z,1.45
2018-12-13T16:23:42.216Z,1.55
2018-12-13T16:26:45.492Z,1.48
2018-12-13T16:29:48.941Z,1.65
2018-12-13T16:32:52.174Z,1.80
2018-12-13T16:35:55.432Z,1.85
2018-12-13T16:38:58.673Z,2.02
2018-12-13T16:42:01.934Z,1.77
2018-12-13T16:45:05.609Z,1.55
2018-12-13T16:48:08.929Z,1.56
2018-12-13T16:51:12.260Z,1.45
2018-12-13T16:54:15.534Z,1.37
2018-12-13T16:57:18.745Z,1.33
2018-12-13T17:00:22.004Z,1.32
2018-12-13T17:03:39.176Z,1.41
2018-12-13T17:06:42.597Z,1.32
2018-12-13T17:09:46.264Z,1.36
2018-12-13T17:12:49.484Z,1.33
2018-12-13T17:15:52.795Z,1.25
2018-12-13T17:18:56.099Z,1.23
2018-12-13T17:21:59.353Z,1.28
2018-12-13T17:25:02.589Z,1.23
2018-12-13T17:28:05.844Z,1.27
2018-12-13T17:31:09.074Z,1.35
2018-12-13T17:34:12.364Z,1.33
2018-12-13T17:37:15.918Z,1.36
2018-12-13T17:40:23.090Z,1.36
2018-12-13T17:43:24.504Z,1.39
2018-12-13T17:46:27.761Z,1.29
2018-12-13T17:49:31.019Z,1.23
2018-12-13T17:52:34.261Z,1.26
2018-12-13T17:55:37.508Z,1.26
2018-12-13T17:58:40.812Z,1.20
2018-12-13T18:01:44.044Z,1.14
2018-12-13T18:04:47.310Z,1.26
2018-12-13T18:07:50.697Z,1.31
2018-12-13T18:10:53.952Z,1.40
2018-12-13T18:13:57.485Z,1.58
2018-12-13T18:17:00.736Z,1.40
2018-12-13T18:20:05.105Z,1.27
2018-12-13T18:23:08.397Z,1.49
2018-12-13T18:26:11.796Z,1.26
2018-12-13T18:29:15.112Z,1.38
2018-12-13T18:32:18.500Z,1.49
2018-12-13T18:35:22.522Z,1.68
2018-12-13T18:38:25.804Z,1.71
2018-12-13T18:41:29.311Z,1.61
2018-12-13T18:44:33.324Z,1.42
2018-12-13T18:47:36.719Z,1.38
2018-12-13T18:50:40.542Z,1.48
2018-12-13T18:53:43.833Z,1.39
2018-12-13T18:56:47.139Z,1.26
2018-12-13T18:59:50.352Z,1.11
2018-12-13T19:02:53.672Z,1.11
2018-12-13T19:05:57.021Z,1.04
2018-12-13T19:09:00.312Z,1.28
2018-12-13T19:12:03.611Z,1.37
2018-12-13T19:15:07.227Z,1.51
2018-12-13T19:18:10.464Z,1.65
2018-12-13T19:21:14.338Z,1.49
2018-12-13T19:24:18.143Z,1.69
2018-12-13T19:27:21.465Z,1.63
2018-12-13T19:30:24.725Z,1.59
2018-12-13T19:33:28.443Z,1.69
2018-12-13T19:36:32.212Z,1.72
2018-12-13T19:39:35.550Z,1.77
2018-12-13T19:42:38.761Z,1.72
2018-12-13T19:45:42.130Z,1.76
2018-12-13T19:48:45.419Z,1.89
2018-12-13T19:51:48.740Z,1.90
2018-12-13T19:54:52.048Z,1.98
2018-12-13T19:57:55.425Z,2.05
2018-12-13T20:01:04.671Z,1.88
2018-12-13T20:04:07.971Z,1.77
2018-12-13T20:07:11.176Z,1.96
2018-12-13T20:10:14.488Z,1.96
2018-12-13T20:13:17.732Z,1.70
2018-12-13T20:16:21.392Z,1.81
2018-12-13T20:19:24.690Z,1.94
2018-12-13T20:22:27.954Z,1.78
2018-12-13T20:25:31.178Z,1.78
2018-12-13T20:28:34.438Z,1.97
2018-12-13T20:31:37.734Z,1.95
2018-12-13T20:34:41.969Z,2.11
2018-12-13T20:37:45.915Z,2.19
2018-12-13T20:40:49.868Z,2.14
2018-12-13T20:43:53.188Z,1.99
2018-12-13T20:46:57.103Z,2.08
2018-12-13T20:50:00.364Z,2.04
2018-12-13T20:53:03.695Z,2.21
2018-12-13T20:56:06.992Z,2.20
2018-12-13T20:59:10.483Z,2.33
2018-12-13T21:02:13.792Z,2.35
2018-12-13T21:05:17.021Z,2.38
2018-12-13T21:08:32.505Z,2.31
2018-12-13T21:11:38.046Z,2.29
2018-12-13T21:14:45.647Z,2.16
2018-12-13T21:17:49.708Z,2.18
2018-12-13T21:20:53.491Z,1.82
2018-12-13T21:24:14.050Z,1.82
2018-12-13T21:27:17.280Z,2.02
2018-12-13T21:30:20.525Z,2.09
2018-12-13T21:33:23.833Z,1.96
2018-12-13T21:36:27.065Z,1.60
2018-12-13T21:39:30.324Z,1.53
2018-12-13T21:42:33.540Z,1.73
2018-12-13T21:45:36.798Z,1.98
2018-12-13T21:48:41.038Z,2.02
2018-12-13T21:51:44.248Z,2.19
2018-12-13T21:54:47.496Z,2.10
2018-12-13T21:57:51.964Z,2.09
2018-12-13T22:00:55.452Z,2.02
2018-12-13T22:03:58.708Z,1.92
2018-12-13T22:07:02.049Z,1.77
2018-12-13T22:10:07.533Z,1.81
2018-12-13T22:13:11.922Z,1.69
2018-12-13T22:16:16.240Z,1.73
2018-12-13T22:19:19.602Z,1.61
2018-12-13T22:22:22.938Z,1.65
2018-12-13T22:25:26.232Z,1.74
2018-12-13T22:28:29.531Z,1.79
2018-12-13T22:31:32.764Z,1.82
2018-12-13T22:34:36.227Z,1.78
2018-12-13T22:37:39.736Z,1.61
2018-12-13T22:40:43.832Z,1.30
2018-12-13T22:43:47.090Z,1.51
2018-12-13T22:46:51.157Z,1.64
2018-12-13T22:49:54.379Z,1.71
2018-12-13T22:52:58.349Z,1.76
2018-12-13T22:56:01.673Z,1.89
2018-12-13T22:59:04.954Z,1.65
2018-12-13T23:02:08.344Z,1.67
2018-12-13T23:05:11.851Z,1.79
2018-12-13T23:08:15.466Z,1.51
2018-12-13T23:11:18.762Z,1.53
2018-12-13T23:14:22.556Z,1.59
2018-12-13T23:17:26.073Z,1.54
2018-12-13T23:20:29.863Z,1.47
2018-12-13T23:23:38.020Z,1.48
2018-12-13T23:26:41.291Z,1.41
2018-12-13T23:29:45.277Z,1.32
2018-12-13T23:32:48.540Z,1.38
2018-12-13T23:35:51.795Z,1.49
2018-12-13T23:38:55.081Z,1.58
2018-12-13T23:41:58.389Z,1.54
2018-12-13T23:45:02.301Z,1.22
2018-12-13T23:48:05.598Z,1.29
2018-12-13T23:51:09.597Z,1.26
2018-12-13T23:54:12.892Z,1.19
2018-12-13T23:57:16.420Z,1.02
